Wessington, SD (57381)

7:44 PM CDT on October 24, 2014 (GMT -0500)
Wessington Springs Hills | Change Station
CLOSE
Current Station
Personal Weather Station
Location: Wessington Springs, SD
Elevation: 1683 ft
Nearby Weather Stations

Elev 1683 ft 44.08 °N, 98.57 °W | Updated 4 minutes ago

Clear
Clear
66.3 °F
Feels Like 66.3 °F
N
3.0
Wind Variable Wind from WNW
Gusts 9.0 mph

Today
High -- | Low -- °F
--% Chance of Precip.
Yesterday
High -- | Low -- °F
Precip. -- in
8:01 AM 6:35 PM
New Moon, 1% visible
Pressure 29.94 in
Visibility 10.0 miles
Clouds Clear
Dew Point 37 °F
Humidity 34%
Rainfall 0.00 in
Snow Depth Not available.
UV 0 out of 12
Pollen 1.60 out of 12
Air Quality Not available.
Flu Activity Sporadic
METAR KHON 242355Z AUTO 31009KT 10SM CLR 16/02 A2992 RMK AO2 SLP137 T01610022 10272 20161 53016

More Conditions Fewer Conditions

Pressure 29.94 in
Visibility 10.0 miles
Clouds Clear
Dew Point 37 °F
Humidity 34%
Rainfall 0.00 in
Snow Depth Not available.
UV 0 out of 12
Pollen 1.60 out of 12
Air Quality Not available.
Flu Activity Sporadic
METAR KHON 242355Z AUTO 31009KT 10SM CLR 16/02 A2992 RMK AO2 SLP137 T01610022 10272 20161 53016

More Conditions Fewer Conditions

10-Day Weather Forecast

Almanac

Astronomy

Oct. 24, 2014 Rise Set
Actual Time 8:01 AM CDT 6:35 PM CDT
Civil Twilight 7:31 AM CDT 7:05 PM CDT
Nautical Twilight 6:57 AM CDT 7:39 PM CDT
Astronomical Twilight 6:24 AM CDT 8:12 PM CDT
Moon 8:43 AM CDT (10/24) 7:14 PM CDT (10/24)
Length of Visible Light 11h 33m
Length of Day
10h 34m
Tomorrow will be 2m 51s shorter.
New Moon, 1% of the Moon is Illuminated
Today
New Moon
Oct 30
First Quarter
Nov 6
Full
Nov 14
Last Quarter
Nov 22
New

Today's Extremes

State Highs State Lows

Community

WunderPhotos

Upload Photos

1,764,735 photos uploaded!

WunderBlogs® & News

Nearby

Snow Depth

Station Depth Elevation
North Rapid Creek 0 in 6130 ft
Blind Park 0 in 6890 ft

Earthquake Activity

City Distance Mag. Time & Date
No recent earthquake activity has been reported nearby.
Minimum magnitude displayed is 2.5.

Coastal Water Temperatures

Place Temperature
No Stations Reporting

Nearby Weather Stations